Time;durP1;ratioP1;P1;durP2;ratioP2;P2;SDS_P1;SDS_P2;PMS_P1;PMS_P2;Temp;Humidity;BMP_temperature;BMP_pressure;BME280_temperature;BME280_humidity;BME280_pressure;Samples;Min_cycle;Max_cycle;Signal;HPM_P1;HPM_P2
2022/03/05 00:01:08;;;;;;;34.90;12.43;;;4.80;46.30;;;;;;5058843;28;20472;-86
2022/03/05 00:03:35;;;;;;;32.73;14.73;;;4.70;47.00;;;;;;5040900;28;20476;-86
2022/03/05 00:06:02;;;;;;;19.80;8.33;;;4.70;47.20;;;;;;5057088;28;20460;-86
2022/03/05 00:08:29;;;;;;;23.77;11.00;;;4.70;46.60;;;;;;5059103;28;20456;-86
2022/03/05 00:10:57;;;;;;;34.00;14.23;;;4.80;47.10;;;;;;5032577;28;20490;-87
2022/03/05 00:13:24;;;;;;;32.60;12.37;;;5.10;46.90;;;;;;5059801;28;20515;-87
2022/03/05 00:15:51;;;;;;;27.57;13.07;;;5.10;45.60;;;;;;5013411;28;20662;-87
2022/03/05 00:18:19;;;;;;;44.07;12.67;;;5.00;45.90;;;;;;5044647;28;20462;-86
2022/03/05 00:20:46;;;;;;;29.13;10.73;;;5.10;46.60;;;;;;5056780;28;20712;-87
2022/03/05 00:23:16;;;;;;;15.30;8.10;;;5.20;45.80;;;;;;5057975;28;20499;-87
2022/03/05 00:25:47;;;;;;;17.53;8.17;;;5.20;45.90;;;;;;5041268;28;21106;-86
2022/03/05 00:28:14;;;;;;;21.23;9.10;;;5.20;45.00;;;;;;5058740;28;20461;-87
2022/03/05 00:30:41;;;;;;;17.70;9.07;;;5.20;44.80;;;;;;5059565;28;20832;-84
2022/03/05 00:33:08;;;;;;;16.23;8.90;;;5.20;45.00;;;;;;5025508;28;20683;-86
2022/03/05 00:35:36;;;;;;;23.93;8.77;;;5.00;45.10;;;;;;5042169;28;20448;-87
2022/03/05 00:38:06;;;;;;;21.37;7.93;;;5.00;45.60;;;;;;5022973;28;20467;-87
2022/03/05 00:40:33;;;;;;;19.87;8.77;;;4.90;45.60;;;;;;5039780;28;20466;-86
2022/03/05 00:43:00;;;;;;;20.67;7.93;;;5.00;45.80;;;;;;5000416;28;20461;-86
2022/03/05 00:45:27;;;;;;;22.70;8.90;;;5.10;45.40;;;;;;5064237;28;20967;-86
2022/03/05 00:47:54;;;;;;;21.87;9.83;;;5.00;44.90;;;;;;5044449;28;20461;-86
2022/03/05 00:50:21;;;;;;;21.87;10.27;;;4.80;46.00;;;;;;5061042;28;20847;-86
2022/03/05 00:52:49;;;;;;;19.93;8.80;;;4.80;45.70;;;;;;5024609;28;20467;-87
2022/03/05 00:55:16;;;;;;;18.83;7.80;;;4.80;46.40;;;;;;5043341;28;20460;-87
2022/03/05 00:57:43;;;;;;;19.57;9.20;;;4.80;46.30;;;;;;5058222;28;20463;-87
2022/03/05 01:00:11;;;;;;;20.23;8.23;;;4.70;46.70;;;;;;5058553;28;20480;-86
2022/03/05 01:02:39;;;;;;;15.83;7.23;;;4.50;47.00;;;;;;5059146;28;20940;-87
2022/03/05 01:05:08;;;;;;;20.90;8.93;;;4.00;48.40;;;;;;5060595;28;20476;-87
2022/03/05 01:07:35;;;;;;;19.37;8.97;;;4.10;48.70;;;;;;5026925;28;20459;-86
2022/03/05 01:10:05;;;;;;;21.90;8.10;;;4.30;48.30;;;;;;5026596;28;20475;-86
2022/03/05 01:12:32;;;;;;;20.87;9.43;;;3.70;48.70;;;;;;5044746;28;20457;-86
2022/03/05 01:14:59;;;;;;;17.20;8.60;;;3.20;50.10;;;;;;5043533;28;20456;-87
2022/03/05 01:17:26;;;;;;;17.90;7.47;;;3.20;50.80;;;;;;5060309;28;20977;-87
2022/03/05 01:19:53;;;;;;;15.70;7.40;;;3.20;51.00;;;;;;5057020;28;20480;-86
2022/03/05 01:22:20;;;;;;;17.53;7.00;;;3.30;50.70;;;;;;5057853;28;20454;-87
2022/03/05 01:24:47;;;;;;;26.13;8.10;;;3.60;50.10;;;;;;5059111;28;20522;-87
2022/03/05 01:27:15;;;;;;;21.57;8.30;;;3.80;49.40;;;;;;5025659;28;20960;-86
2022/03/05 01:29:42;;;;;;;20.10;8.33;;;3.70;49.50;;;;;;5030015;28;20456;-86
2022/03/05 01:32:09;;;;;;;16.40;8.40;;;3.90;49.60;;;;;;5047637;28;20966;-87
2022/03/05 01:34:36;;;;;;;15.27;6.63;;;4.00;49.20;;;;;;5048614;28;20553;-87
2022/03/05 01:37:04;;;;;;;27.17;9.77;;;4.10;49.20;;;;;;5066836;28;20703;-87
2022/03/05 01:39:31;;;;;;;18.50;6.87;;;4.30;48.30;;;;;;5052297;28;20460;-86
2022/03/05 01:41:58;;;;;;;19.43;8.13;;;4.40;47.70;;;;;;5067033;28;20495;-87
2022/03/05 01:44:26;;;;;;;19.13;10.23;;;4.20;48.60;;;;;;5066276;28;20471;-87
2022/03/05 01:46:53;;;;;;;20.87;9.80;;;4.30;48.60;;;;;;5034511;28;20458;-86
2022/03/05 01:49:21;;;;;;;24.27;7.73;;;4.40;47.60;;;;;;5046278;28;20461;-86
2022/03/05 01:51:48;;;;;;;28.47;9.30;;;4.50;47.60;;;;;;5031658;28;20601;-87
2022/03/05 01:54:15;;;;;;;23.83;10.07;;;4.50;47.20;;;;;;5045538;28;20452;-86
2022/03/05 01:56:44;;;;;;;17.53;7.53;;;4.60;47.50;;;;;;5053261;28;20845;-87
2022/03/05 01:59:11;;;;;;;21.50;8.50;;;4.60;47.90;;;;;;5045248;28;20951;-86
2022/03/05 02:01:39;;;;;;;17.10;6.30;;;4.60;47.10;;;;;;5051537;28;20980;-87
2022/03/05 02:04:06;;;;;;;28.33;8.17;;;4.60;47.00;;;;;;5045327;28;20988;-87
2022/03/05 02:06:34;;;;;;;16.50;7.43;;;4.60;46.90;;;;;;5065102;28;20448;-87
2022/03/05 02:09:01;;;;;;;20.43;9.70;;;4.50;46.80;;;;;;5045477;28;20464;-88
2022/03/05 02:11:28;;;;;;;18.90;7.03;;;4.60;47.30;;;;;;5046841;28;21017;-87
2022/03/05 02:13:56;;;;;;;20.33;8.10;;;4.60;47.40;;;;;;5045095;28;20445;-86
2022/03/05 02:16:23;;;;;;;20.40;7.63;;;4.60;47.40;;;;;;5041723;28;20455;-86
2022/03/05 02:18:55;;;;;;;15.63;7.43;;;4.60;47.50;;;;;;5063357;28;20995;-87
2022/03/05 02:21:24;;;;;;;24.87;9.00;;;4.60;47.50;;;;;;5043682;28;20471;-87
2022/03/05 02:23:51;;;;;;;24.17;7.50;;;4.70;47.70;;;;;;5043730;28;20996;-86
2022/03/05 02:26:18;;;;;;;21.13;9.80;;;4.80;47.50;;;;;;5062582;28;20830;-87
2022/03/05 02:28:45;;;;;;;25.57;9.17;;;4.90;47.50;;;;;;5044161;28;20465;-86
2022/03/05 02:31:12;;;;;;;21.03;9.10;;;5.00;47.50;;;;;;5027135;28;20512;-86
2022/03/05 02:33:40;;;;;;;27.23;8.70;;;5.10;47.10;;;;;;5046815;28;20432;-86
2022/03/05 02:36:07;;;;;;;23.70;8.67;;;5.10;46.90;;;;;;5031255;28;20552;-86
2022/03/05 02:38:36;;;;;;;15.20;6.70;;;5.20;46.90;;;;;;5063168;28;20996;-87
2022/03/05 02:41:03;;;;;;;21.33;7.77;;;5.20;46.90;;;;;;5062754;28;20534;-86
2022/03/05 02:43:30;;;;;;;14.87;7.90;;;5.20;47.00;;;;;;5065751;28;20503;-86
2022/03/05 02:45:58;;;;;;;20.23;9.33;;;5.20;46.70;;;;;;5046937;28;20461;-86
2022/03/05 02:48:25;;;;;;;16.17;8.70;;;5.10;46.80;;;;;;5027633;28;20835;-86
2022/03/05 02:50:52;;;;;;;21.53;9.63;;;4.60;47.90;;;;;;5045126;28;20527;-87
2022/03/05 02:53:19;;;;;;;18.07;8.83;;;4.50;48.30;;;;;;5045079;28;20762;-86
2022/03/05 02:55:48;;;;;;;15.23;8.23;;;4.60;48.00;;;;;;5044938;28;20456;-86
2022/03/05 02:58:15;;;;;;;24.57;10.57;;;4.60;48.10;;;;;;5050676;28;20457;-86
2022/03/05 03:00:42;;;;;;;22.10;8.17;;;4.60;48.30;;;;;;5065304;28;20979;-86
2022/03/05 03:03:09;;;;;;;18.23;6.87;;;4.40;48.90;;;;;;5064235;28;20546;-86
2022/03/05 03:05:36;;;;;;;21.40;8.80;;;4.20;49.10;;;;;;5049541;28;20469;-86
2022/03/05 03:08:03;;;;;;;24.00;9.37;;;3.80;50.10;;;;;;5048556;28;21022;-87
2022/03/05 03:10:30;;;;;;;17.73;7.70;;;3.40;50.90;;;;;;5049216;28;20488;-85
2022/03/05 03:12:59;;;;;;;22.97;9.60;;;3.30;51.40;;;;;;5031490;28;20449;-85
2022/03/05 03:15:26;;;;;;;23.77;10.20;;;3.50;51.00;;;;;;5047077;28;20475;-86
2022/03/05 03:17:54;;;;;;;18.33;7.03;;;3.90;50.10;;;;;;5061042;28;20521;-86
2022/03/05 03:20:23;;;;;;;21.87;9.13;;;4.00;49.70;;;;;;5053466;28;20480;-86
2022/03/05 03:22:50;;;;;;;21.03;8.20;;;4.10;49.80;;;;;;5026589;28;20463;-86
2022/03/05 03:25:17;;;;;;;22.20;9.87;;;4.20;49.50;;;;;;5029396;28;21048;-86
2022/03/05 03:27:44;;;;;;;22.60;9.77;;;4.30;49.30;;;;;;5027346;28;20875;-86
2022/03/05 03:30:15;;;;;;;23.87;9.37;;;4.40;49.00;;;;;;5063290;28;20475;-85
2022/03/05 03:32:42;;;;;;;23.73;7.60;;;4.50;48.30;;;;;;5043074;28;20479;-86
2022/03/05 03:35:11;;;;;;;18.53;8.37;;;4.50;47.80;;;;;;5062481;28;20448;-87
2022/03/05 03:37:39;;;;;;;15.13;8.10;;;4.50;48.50;;;;;;5026841;28;20492;-86
2022/03/05 03:40:09;;;;;;;22.83;9.00;;;4.40;47.80;;;;;;5045046;28;20560;-87
2022/03/05 03:42:36;;;;;;;20.13;7.20;;;4.50;48.00;;;;;;5061132;28;20460;-86
2022/03/05 03:45:04;;;;;;;20.73;8.80;;;4.50;48.20;;;;;;5027276;28;20920;-87
2022/03/05 03:47:33;;;;;;;21.20;9.50;;;4.60;48.30;;;;;;5027603;28;20444;-87
2022/03/05 03:50:00;;;;;;;22.33;9.20;;;4.70;48.20;;;;;;5042148;28;20472;-86
2022/03/05 03:52:27;;;;;;;17.50;8.00;;;4.70;48.10;;;;;;5045776;28;20567;-86
2022/03/05 03:54:54;;;;;;;21.67;9.37;;;4.70;48.00;;;;;;5061145;28;20457;-87
2022/03/05 03:57:22;;;;;;;16.50;7.57;;;4.80;48.00;;;;;;5028129;28;20811;-86
2022/03/05 03:59:51;;;;;;;23.97;9.00;;;4.80;48.30;;;;;;5043391;28;21003;-86
2022/03/05 04:02:19;;;;;;;30.13;10.70;;;4.70;48.60;;;;;;5060746;28;21010;-87
2022/03/05 04:04:47;;;;;;;27.97;9.30;;;4.70;49.00;;;;;;5059733;28;20655;-86
2022/03/05 04:09:59;;;;;;;19.87;8.77;;;4.90;48.70;;;;;;5043423;28;20980;-86
2022/03/05 04:12:26;;;;;;;17.87;8.97;;;4.80;48.80;;;;;;5046373;28;20444;-87
2022/03/05 04:14:54;;;;;;;26.43;10.97;;;4.40;49.50;;;;;;5060720;28;20448;-86
2022/03/05 04:17:22;;;;;;;24.30;8.87;;;4.40;49.90;;;;;;5032332;28;20737;-87
2022/03/05 04:19:50;;;;;;;22.20;9.70;;;4.60;49.50;;;;;;5044229;28;20500;-87
2022/03/05 04:22:17;;;;;;;17.57;7.70;;;4.70;49.40;;;;;;5044831;28;20456;-87
2022/03/05 04:24:44;;;;;;;23.80;9.90;;;4.90;48.90;;;;;;5041044;28;20503;-86
2022/03/05 04:27:11;;;;;;;29.40;11.97;;;4.80;48.90;;;;;;5032412;28;20456;-86
2022/03/05 04:29:39;;;;;;;20.50;8.60;;;4.70;48.90;;;;;;5026458;28;20511;-86
2022/03/05 04:32:07;;;;;;;21.03;8.10;;;4.90;48.90;;;;;;5044276;28;20460;-87
2022/03/05 04:34:34;;;;;;;27.70;9.70;;;4.70;48.60;;;;;;5062945;28;21100;-86
2022/03/05 04:37:04;;;;;;;18.60;7.40;;;4.10;50.10;;;;;;5043621;28;20471;-87
2022/03/05 04:39:31;;;;;;;35.17;11.23;;;4.00;50.50;;;;;;5064340;28;20551;-88
2022/03/05 04:41:58;;;;;;;19.47;8.77;;;4.20;50.40;;;;;;5010519;28;20459;-84
2022/03/05 04:44:25;;;;;;;25.40;10.77;;;4.30;49.80;;;;;;5013896;28;20468;-87
2022/03/05 04:46:52;;;;;;;16.90;8.40;;;4.40;49.20;;;;;;5030127;28;20455;-85
2022/03/05 04:49:19;;;;;;;22.30;9.50;;;4.50;49.30;;;;;;5026346;28;21161;-88
2022/03/05 04:51:46;;;;;;;21.23;9.27;;;4.60;49.10;;;;;;5045690;28;20473;-87
2022/03/05 04:54:14;;;;;;;19.83;9.17;;;4.60;49.00;;;;;;5026831;28;20448;-86
2022/03/05 04:56:41;;;;;;;18.93;7.70;;;4.60;48.90;;;;;;5027321;28;20456;-86
2022/03/05 04:59:08;;;;;;;22.50;9.63;;;4.60;49.00;;;;;;5059658;28;20456;-88
2022/03/05 05:01:35;;;;;;;20.07;10.10;;;4.50;48.70;;;;;;5041462;28;20525;-86
2022/03/05 05:04:02;;;;;;;23.07;9.80;;;3.90;50.00;;;;;;5043266;28;20448;-88
2022/03/05 05:06:29;;;;;;;18.57;8.20;;;4.00;50.40;;;;;;5045347;28;20472;-87
2022/03/05 05:08:56;;;;;;;26.13;10.07;;;4.20;49.40;;;;;;5065931;28;20453;-86
2022/03/05 05:11:25;;;;;;;17.00;7.80;;;4.20;49.00;;;;;;5049233;28;20592;-87
2022/03/05 05:13:51;;;;;;;20.33;9.17;;;4.20;49.20;;;;;;5050046;28;20448;-87
2022/03/05 05:16:19;;;;;;;22.90;9.73;;;4.30;49.20;;;;;;5031644;28;20767;-87
2022/03/05 05:21:27;;;;;;;20.23;9.23;;;4.40;48.60;;;;;;5045556;28;20459;-88
2022/03/05 05:23:54;;;;;;;24.03;10.20;;;4.30;49.50;;;;;;5055126;28;20856;-87
2022/03/05 05:26:21;;;;;;;40.97;17.83;;;4.20;49.50;;;;;;5047684;28;20960;-87
2022/03/05 05:28:49;;;;;;;35.17;16.37;;;4.30;49.40;;;;;;5063913;28;20467;-87
2022/03/05 05:31:16;;;;;;;52.97;24.13;;;4.30;48.90;;;;;;5037708;28;20498;-86
2022/03/05 05:33:45;;;;;;;64.23;25.10;;;4.20;48.90;;;;;;5047533;28;20524;-88
2022/03/05 05:36:12;;;;;;;53.50;21.93;;;4.20;48.90;;;;;;5064343;28;20450;-86
2022/03/05 05:38:40;;;;;;;67.23;29.50;;;4.10;49.10;;;;;;5046414;28;20468;-87
2022/03/05 05:41:07;;;;;;;59.30;22.77;;;4.00;49.70;;;;;;5062900;28;20979;-87
2022/03/05 05:43:34;;;;;;;65.40;27.90;;;3.90;49.90;;;;;;5049952;28;20440;-87
2022/03/05 05:46:02;;;;;;;80.67;32.73;;;3.90;49.70;;;;;;5050286;28;20480;-86
2022/03/05 05:48:29;;;;;;;50.80;21.60;;;4.10;49.80;;;;;;5061858;28;20456;-87
2022/03/05 05:50:56;;;;;;;47.03;17.40;;;4.20;49.70;;;;;;5064182;28;20479;-84
2022/03/05 05:53:25;;;;;;;21.10;11.20;;;4.30;49.70;;;;;;5026075;28;20461;-87
2022/03/05 05:55:53;;;;;;;28.40;13.03;;;4.40;49.30;;;;;;5049471;28;21019;-87
2022/03/05 05:58:20;;;;;;;29.17;11.90;;;4.50;49.10;;;;;;5044822;28;20495;-87
2022/03/05 06:00:47;;;;;;;39.90;16.20;;;4.50;49.00;;;;;;5065828;28;20476;-87
2022/03/05 06:03:16;;;;;;;32.43;12.33;;;4.60;49.00;;;;;;5048121;28;20715;-87
2022/03/05 06:05:43;;;;;;;41.10;11.33;;;4.60;48.60;;;;;;5045919;28;20487;-88
2022/03/05 06:08:10;;;;;;;33.27;14.27;;;4.60;48.50;;;;;;5063527;28;20453;-86
2022/03/05 06:10:37;;;;;;;24.17;14.90;;;4.60;48.30;;;;;;5054563;28;20468;-87
2022/03/05 06:13:04;;;;;;;27.70;15.07;;;4.50;47.80;;;;;;5046045;28;20846;-87
2022/03/05 06:15:30;;;;;;;37.53;16.50;;;4.50;48.10;;;;;;5045819;28;20457;-86
2022/03/05 06:17:58;;;;;;;33.50;14.10;;;4.50;48.40;;;;;;5025655;28;20473;-87
2022/03/05 06:20:26;;;;;;;25.80;12.40;;;4.30;48.60;;;;;;5025642;28;20485;-88
2022/03/05 06:22:53;;;;;;;30.23;14.50;;;4.30;48.80;;;;;;5044893;28;20447;-87
2022/03/05 06:25:20;;;;;;;21.30;10.47;;;4.20;49.00;;;;;;5034376;28;20817;-87
2022/03/05 06:27:47;;;;;;;29.93;10.33;;;4.10;49.20;;;;;;5063274;28;20473;-87
2022/03/05 06:30:14;;;;;;;25.63;10.60;;;3.80;50.30;;;;;;5030302;28;20526;-87
2022/03/05 06:32:42;;;;;;;33.60;11.37;;;4.00;50.10;;;;;;5044777;28;20817;-86
2022/03/05 06:35:09;;;;;;;32.90;11.20;;;4.10;49.10;;;;;;5065519;28;20453;-88
2022/03/05 06:37:38;;;;;;;22.13;9.70;;;4.20;49.10;;;;;;5043764;28;20471;-87
2022/03/05 06:40:06;;;;;;;22.77;10.00;;;4.30;49.00;;;;;;5048298;28;20484;-87
2022/03/05 06:42:33;;;;;;;27.63;10.43;;;4.30;48.50;;;;;;5047923;28;20456;-87
2022/03/05 06:45:00;;;;;;;28.67;10.87;;;4.30;49.00;;;;;;5061699;28;20465;-87
2022/03/05 06:47:27;;;;;;;30.23;13.37;;;4.30;49.00;;;;;;5043331;28;20460;-86
2022/03/05 06:49:54;;;;;;;29.13;11.87;;;4.30;48.90;;;;;;5020536;28;20476;-88
2022/03/05 06:52:21;;;;;;;27.20;11.47;;;4.20;49.10;;;;;;5061419;28;21034;-85
2022/03/05 06:54:50;;;;;;;32.33;13.93;;;4.00;49.30;;;;;;5061968;28;20449;-86
2022/03/05 06:57:17;;;;;;;25.10;13.30;;;4.00;49.70;;;;;;5046235;28;20517;-88
2022/03/05 06:59:44;;;;;;;29.90;12.97;;;4.10;49.60;;;;;;5062394;28;20476;-87
2022/03/05 07:02:10;;;;;;;31.23;12.97;;;4.20;49.50;;;;;;5024538;28;20456;-87
2022/03/05 07:04:37;;;;;;;18.63;8.37;;;4.10;49.60;;;;;;5040665;28;20946;-87
2022/03/05 07:07:04;;;;;;;20.10;10.03;;;4.00;49.70;;;;;;5038859;28;20469;-88
2022/03/05 07:09:32;;;;;;;20.93;9.10;;;3.80;50.20;;;;;;5031917;28;20495;-87
2022/03/05 07:12:00;;;;;;;21.23;10.20;;;3.50;50.70;;;;;;5028160;28;20453;-88
2022/03/05 07:14:28;;;;;;;23.07;9.77;;;3.20;51.60;;;;;;5059626;28;20463;-88
2022/03/05 07:16:55;;;;;;;23.40;9.30;;;3.30;51.90;;;;;;5043541;28;20453;-87
2022/03/05 07:19:22;;;;;;;24.20;10.70;;;3.40;51.60;;;;;;5025338;28;20452;-88
2022/03/05 07:21:49;;;;;;;26.47;9.37;;;3.60;51.70;;;;;;5021985;28;20459;-87
2022/03/05 07:24:16;;;;;;;17.27;9.20;;;3.80;51.00;;;;;;5015764;28;20453;-87
2022/03/05 07:26:43;;;;;;;24.23;10.97;;;4.10;50.40;;;;;;5057314;28;20484;-87
2022/03/05 07:29:11;;;;;;;24.10;10.43;;;4.20;49.90;;;;;;5040419;28;20969;-87
2022/03/05 07:31:38;;;;;;;25.03;11.60;;;4.40;49.60;;;;;;5042592;28;20503;-87
2022/03/05 07:34:06;;;;;;;32.93;12.03;;;4.50;49.40;;;;;;5009048;28;20847;-87
2022/03/05 07:36:32;;;;;;;24.53;11.80;;;4.60;49.30;;;;;;5057858;28;20681;-87
2022/03/05 07:38:59;;;;;;;28.67;11.83;;;4.70;49.20;;;;;;5028302;28;20510;-88
2022/03/05 07:41:26;;;;;;;34.30;12.03;;;4.70;49.00;;;;;;5048070;28;20496;-89
2022/03/05 07:43:53;;;;;;;29.63;12.97;;;4.70;49.30;;;;;;5048929;28;20460;-88
2022/03/05 07:46:21;;;;;;;32.27;13.70;;;4.70;49.50;;;;;;5042468;28;20834;-89
2022/03/05 07:48:48;;;;;;;28.60;12.57;;;4.80;49.40;;;;;;5038296;28;20440;-88
2022/03/05 07:51:15;;;;;;;24.50;11.13;;;4.80;49.40;;;;;;5040071;28;20481;-88
2022/03/05 07:53:42;;;;;;;27.10;12.37;;;4.90;49.40;;;;;;5043999;28;21091;-89
2022/03/05 07:56:10;;;;;;;34.33;12.20;;;4.90;49.40;;;;;;5041266;28;20449;-88
2022/03/05 07:58:37;;;;;;;28.67;11.67;;;5.00;49.40;;;;;;5011199;28;20466;-88
2022/03/05 08:01:04;;;;;;;33.30;13.07;;;5.00;49.20;;;;;;5056469;28;20902;-88
2022/03/05 08:03:32;;;;;;;34.23;14.67;;;5.00;49.20;;;;;;5058605;28;20819;-89
2022/03/05 08:05:59;;;;;;;27.73;12.63;;;5.10;49.30;;;;;;5041270;28;20472;-88
2022/03/05 08:08:26;;;;;;;28.47;12.60;;;5.10;49.20;;;;;;5043034;28;20465;-88
2022/03/05 08:10:54;;;;;;;35.13;11.80;;;5.10;49.20;;;;;;5056267;28;20472;-87
2022/03/05 08:13:21;;;;;;;25.53;12.30;;;5.10;49.30;;;;;;5057011;28;20452;-88
2022/03/05 08:15:48;;;;;;;38.80;14.10;;;5.10;49.30;;;;;;5046694;28;20467;-88
2022/03/05 08:18:15;;;;;;;30.63;11.67;;;5.20;49.30;;;;;;5057536;28;20448;-89
2022/03/05 08:20:44;;;;;;;35.73;13.83;;;5.20;49.40;;;;;;5030442;28;20484;-88
2022/03/05 08:23:10;;;;;;;26.57;11.77;;;5.20;49.30;;;;;;5040763;28;20444;-88
2022/03/05 08:25:37;;;;;;;27.50;11.90;;;5.20;49.10;;;;;;5023219;28;20479;-87
2022/03/05 08:28:05;;;;;;;26.43;11.50;;;5.30;49.30;;;;;;5039493;28;21029;-88
2022/03/05 08:30:32;;;;;;;26.07;12.80;;;5.30;49.20;;;;;;5038874;28;20464;-87
2022/03/05 08:32:59;;;;;;;28.03;12.70;;;5.30;49.20;;;;;;5058255;28;20479;-87
2022/03/05 08:35:26;;;;;;;38.83;12.43;;;5.40;49.10;;;;;;5057027;28;20448;-88
2022/03/05 08:37:55;;;;;;;32.23;11.33;;;5.40;49.00;;;;;;5020969;28;20457;-88
2022/03/05 08:40:22;;;;;;;23.70;11.90;;;5.50;49.10;;;;;;5038899;28;20750;-87
2022/03/05 08:42:49;;;;;;;28.50;12.70;;;5.50;49.10;;;;;;5019544;28;20463;-88
2022/03/05 08:45:17;;;;;;;20.70;10.13;;;5.60;49.00;;;;;;5005265;28;20468;-87
2022/03/05 08:47:44;;;;;;;25.30;11.83;;;5.60;48.90;;;;;;5031503;28;20518;-88
2022/03/05 08:50:11;;;;;;;25.10;11.00;;;5.50;49.10;;;;;;5049050;28;20468;-87
2022/03/05 08:52:39;;;;;;;24.93;10.60;;;5.30;49.80;;;;;;5024785;28;20460;-87
2022/03/05 08:55:09;;;;;;;25.53;11.80;;;5.20;50.00;;;;;;5032915;28;20449;-87
2022/03/05 08:57:36;;;;;;;29.20;11.20;;;5.30;50.00;;;;;;5038536;28;20484;-87
2022/03/05 09:00:07;;;;;;;27.67;11.80;;;5.40;50.00;;;;;;5024190;28;20929;-87
2022/03/05 09:02:33;;;;;;;25.60;10.80;;;5.50;50.00;;;;;;5032632;28;20453;-86
2022/03/05 09:05:00;;;;;;;20.10;9.90;;;5.60;50.10;;;;;;5058408;28;20475;-86
2022/03/05 09:07:27;;;;;;;22.47;10.53;;;5.70;49.90;;;;;;5039910;28;21002;-86
2022/03/05 09:09:54;;;;;;;22.90;10.47;;;5.70;49.80;;;;;;5028124;28;20542;-87
2022/03/05 09:12:23;;;;;;;19.47;11.30;;;5.70;50.00;;;;;;5048781;28;20465;-86
2022/03/05 09:14:50;;;;;;;19.10;9.67;;;5.70;50.30;;;;;;5057471;28;20456;-86
2022/03/05 09:17:17;;;;;;;21.70;10.47;;;5.50;50.10;;;;;;5024832;28;20549;-86
2022/03/05 09:19:44;;;;;;;25.70;11.17;;;5.50;50.80;;;;;;5055774;28;21239;-88
2022/03/05 09:22:11;;;;;;;26.63;13.20;;;5.50;50.80;;;;;;5061110;28;20470;-87
2022/03/05 09:24:39;;;;;;;27.10;12.37;;;5.50;51.00;;;;;;5061529;28;20457;-88
2022/03/05 09:27:06;;;;;;;25.40;12.17;;;5.40;51.10;;;;;;5019516;28;20512;-85
2022/03/05 09:29:35;;;;;;;24.90;10.60;;;5.60;51.20;;;;;;5037810;28;20535;-86
2022/03/05 09:32:03;;;;;;;24.73;11.90;;;5.80;50.80;;;;;;5027064;28;20452;-87
2022/03/05 09:34:31;;;;;;;30.20;11.00;;;6.00;50.50;;;;;;5025863;28;20514;-87
2022/03/05 09:36:58;;;;;;;29.37;13.00;;;6.00;49.90;;;;;;5049918;28;20461;-87
2022/03/05 09:39:24;;;;;;;33.90;12.27;;;6.20;50.00;;;;;;5052366;28;20457;-87
2022/03/05 09:41:52;;;;;;;27.80;11.97;;;6.40;49.10;;;;;;5024230;28;20459;-88
2022/03/05 09:44:19;;;;;;;23.43;12.10;;;6.40;49.10;;;;;;5036706;28;20458;-87
2022/03/05 09:46:48;;;;;;;24.40;12.03;;;6.30;49.10;;;;;;5041780;28;20963;-87
2022/03/05 09:49:16;;;;;;;28.17;14.90;;;6.40;49.50;;;;;;5055903;28;20458;-87
2022/03/05 09:51:43;;;;;;;24.20;11.43;;;6.60;48.60;;;;;;5018599;28;20476;-88
2022/03/05 09:54:10;;;;;;;25.00;12.57;;;6.90;48.40;;;;;;5040402;28;20453;-88
2022/03/05 09:56:37;;;;;;;22.67;10.37;;;7.20;47.90;;;;;;5062339;28;20782;-88
2022/03/05 09:59:04;;;;;;;30.40;13.40;;;7.30;47.20;;;;;;5020241;28;20495;-88
2022/03/05 10:01:32;;;;;;;20.83;10.60;;;7.60;47.10;;;;;;5044093;28;20473;-87
2022/03/05 10:04:02;;;;;;;27.30;10.60;;;7.70;46.20;;;;;;5052602;28;20973;-88
2022/03/05 10:06:29;;;;;;;19.87;10.60;;;7.80;45.60;;;;;;5044702;28;20452;-88
2022/03/05 10:08:57;;;;;;;22.97;11.10;;;8.00;45.60;;;;;;5027964;28;20973;-89
2022/03/05 10:11:25;;;;;;;29.27;11.40;;;8.30;51.20;;;;;;5063879;28;20506;-89
2022/03/05 10:13:52;;;;;;;24.73;11.23;;;8.40;46.10;;;;;;5009654;28;20938;-86
2022/03/05 10:16:26;;;;;;;21.77;11.20;;;8.40;45.90;;;;;;5045309;28;20620;-89
2022/03/05 10:18:54;;;;;;;22.17;11.13;;;8.70;44.60;;;;;;5028784;28;20448;-88
2022/03/05 10:21:29;;;;;;;25.27;10.40;;;8.50;44.60;;;;;;5053047;28;21050;-87
2022/03/05 10:24:09;;;;;;;23.13;11.33;;;8.50;44.20;;;;;;5063585;28;20452;-87
2022/03/05 10:26:52;;;;;;;22.57;11.60;;;8.50;44.10;;;;;;5024497;28;20486;-87
2022/03/05 10:29:24;;;;;;;17.03;9.70;;;8.70;44.40;;;;;;5045455;28;20466;-89
2022/03/05 10:31:59;;;;;;;18.67;9.83;;;8.90;43.90;;;;;;5043755;28;20932;-88
2022/03/05 10:34:27;;;;;;;21.00;10.87;;;9.10;42.60;;;;;;5039297;28;20499;-88
2022/03/05 10:37:00;;;;;;;20.10;11.40;;;8.90;43.00;;;;;;5029777;28;20500;-88
2022/03/05 10:39:28;;;;;;;20.30;10.53;;;8.90;43.10;;;;;;5056756;28;20441;-88
2022/03/05 10:41:55;;;;;;;17.40;9.50;;;9.10;43.20;;;;;;5021476;28;20511;-87
2022/03/05 10:44:23;;;;;;;25.30;11.93;;;9.20;42.50;;;;;;5021750;28;20468;-88
2022/03/05 10:46:56;;;;;;;22.43;10.67;;;9.00;42.20;;;;;;5045884;28;20487;-88
2022/03/05 10:49:25;;;;;;;22.10;11.70;;;9.20;42.20;;;;;;5062535;28;20468;-87
2022/03/05 10:52:03;;;;;;;17.97;9.97;;;9.20;42.40;;;;;;5031562;28;20452;-88
2022/03/05 10:54:35;;;;;;;18.60;10.90;;;9.50;42.70;;;;;;5034382;28;21139;-88
2022/03/05 10:57:09;;;;;;;24.30;11.50;;;9.90;42.10;;;;;;5037886;28;20559;-88
2022/03/05 10:59:38;;;;;;;18.60;10.57;;;9.90;40.80;;;;;;5059275;28;20464;-88
2022/03/05 11:02:05;;;;;;;19.50;9.90;;;9.90;40.40;;;;;;5044166;28;20453;-88
2022/03/05 11:04:35;;;;;;;18.40;10.53;;;10.00;39.80;;;;;;5025935;28;20561;-88
2022/03/05 11:07:03;;;;;;;21.80;10.67;;;10.20;40.00;;;;;;5063544;28;20473;-87
2022/03/05 11:09:32;;;;;;;18.93;10.10;;;10.10;39.00;;;;;;5033322;28;20452;-89
2022/03/05 11:12:00;;;;;;;22.70;12.00;;;10.10;39.00;;;;;;5030226;28;20464;-88
2022/03/05 11:14:28;;;;;;;22.60;11.57;;;10.20;39.10;;;;;;5047490;28;20457;-88
2022/03/05 11:16:56;;;;;;;19.50;10.20;;;10.40;38.70;;;;;;5028176;28;20735;-88
2022/03/05 11:19:25;;;;;;;18.50;8.73;;;10.70;38.00;;;;;;5046947;28;20494;-88
2022/03/05 11:21:53;;;;;;;19.10;9.80;;;11.00;37.70;;;;;;5045119;28;20464;-88
2022/03/05 11:24:22;;;;;;;19.70;10.40;;;11.00;36.90;;;;;;5028297;28;20448;-88
2022/03/05 11:26:51;;;;;;;18.60;9.87;;;11.20;36.60;;;;;;5032589;28;20473;-88
2022/03/05 11:29:19;;;;;;;20.10;10.00;;;11.10;36.20;;;;;;5046451;28;20458;-88
2022/03/05 11:31:48;;;;;;;15.43;8.90;;;10.80;35.90;;;;;;5019481;28;20514;-88
2022/03/05 11:34:18;;;;;;;15.00;8.00;;;10.80;36.20;;;;;;5030721;28;20981;-87
2022/03/05 11:36:46;;;;;;;18.40;9.10;;;11.30;36.40;;;;;;5046669;28;20779;-88
2022/03/05 11:39:15;;;;;;;16.43;9.20;;;11.40;34.60;;;;;;5042403;28;20479;-89
2022/03/05 11:41:54;;;;;;;20.43;8.50;;;11.20;33.70;;;;;;5043799;28;20465;-88
2022/03/05 11:44:23;;;;;;;20.30;9.33;;;10.90;33.20;;;;;;5027643;28;20677;-88
2022/03/05 11:47:10;;;;;;;14.30;8.30;;;10.60;34.00;;;;;;5029494;28;21090;-88
2022/03/05 11:50:16;;;;;;;12.97;7.00;;;10.30;33.40;;;;;;5042217;28;20944;-87
2022/03/05 11:53:17;;;;;;;12.13;6.40;;;10.40;33.70;;;;;;5025601;28;20503;-88
2022/03/05 11:55:45;;;;;;;9.17;5.60;;;10.70;33.30;;;;;;5025896;28;20444;-88
2022/03/05 11:58:35;;;;;;;13.63;6.80;;;10.60;32.30;;;;;;5010481;28;20457;-88
2022/03/05 12:01:38;;;;;;;11.67;7.20;;;10.70;33.30;;;;;;5058474;28;20485;-87
2022/03/05 12:04:22;;;;;;;13.83;7.07;;;11.00;32.30;;;;;;5043030;28;21012;-88
2022/03/05 12:06:52;;;;;;;10.80;6.27;;;11.40;31.90;;;;;;5047392;28;20777;-88
2022/03/05 12:09:40;;;;;;;9.73;6.43;;;11.60;31.10;;;;;;5046501;28;20493;-85
2022/03/05 12:12:10;;;;;;;11.33;5.57;;;11.80;29.70;;;;;;5042985;28;20974;-85
2022/03/05 12:15:11;;;;;;;11.63;5.63;;;11.60;28.70;;;;;;5026412;28;20463;-84
2022/03/05 12:17:45;;;;;;;14.90;7.00;;;11.50;29.60;;;;;;5039463;28;20458;-85
2022/03/05 12:20:15;;;;;;;18.33;7.50;;;11.40;28.60;;;;;;5043454;28;20495;-85
2022/03/05 12:22:58;;;;;;;13.63;6.40;;;11.30;28.90;;;;;;5063542;28;20872;-85
2022/03/05 12:25:26;;;;;;;11.90;6.70;;;11.30;29.20;;;;;;5059483;28;20552;-85
2022/03/05 12:27:56;;;;;;;8.77;4.97;;;11.10;28.90;;;;;;5027835;28;20481;-86
2022/03/05 12:30:26;;;;;;;12.20;6.50;;;11.20;28.50;;;;;;5046675;28;20467;-86
2022/03/05 12:32:55;;;;;;;9.80;5.53;;;11.10;28.70;;;;;;5063375;28;20551;-85
2022/03/05 12:35:22;;;;;;;13.83;6.67;;;11.00;28.00;;;;;;5027295;28;20458;-86
2022/03/05 12:37:50;;;;;;;12.27;5.47;;;11.10;29.00;;;;;;5059243;28;21007;-85
2022/03/05 12:40:17;;;;;;;9.10;5.33;;;11.00;28.20;;;;;;5027576;28;20468;-86
2022/03/05 12:42:46;;;;;;;22.70;8.53;;;11.00;28.10;;;;;;5043318;28;20461;-86
2022/03/05 12:45:18;;;;;;;8.73;4.90;;;11.10;28.80;;;;;;5029914;28;20497;-86
2022/03/05 12:47:47;;;;;;;8.40;5.50;;;11.20;27.90;;;;;;5035004;28;21305;-86
2022/03/05 12:50:27;;;;;;;10.00;5.30;;;11.20;27.90;;;;;;5058594;28;20845;-87
2022/03/05 12:52:59;;;;;;;7.87;5.37;;;11.10;28.10;;;;;;5042448;28;20464;-86